createdAt,value
2023-04-26T00:02:23.730Z,100.00
2023-04-26T00:05:09.692Z,100.00
2023-04-26T00:07:54.507Z,100.00
2023-04-26T00:10:40.598Z,100.00
2023-04-26T00:13:25.978Z,100.00
2023-04-26T00:16:10.033Z,100.00
2023-04-26T00:21:38.424Z,100.00
2023-04-26T00:24:22.482Z,100.00
2023-04-26T00:27:09.422Z,100.00
2023-04-26T00:29:55.002Z,100.00
2023-04-26T00:32:39.705Z,100.00
2023-04-26T00:35:24.738Z,100.00
2023-04-26T00:38:09.103Z,100.00
2023-04-26T00:40:53.066Z,100.00
2023-04-26T00:43:37.086Z,100.00
2023-04-26T00:46:22.581Z,100.00
2023-04-26T00:49:06.724Z,100.00
2023-04-26T00:51:52.721Z,100.00
2023-04-26T00:54:36.880Z,100.00
2023-04-26T00:57:21.337Z,100.00
2023-04-26T01:00:06.612Z,100.00
2023-04-26T01:02:53.082Z,100.00
2023-04-26T01:05:37.583Z,100.00
2023-04-26T01:08:21.968Z,100.00
2023-04-26T01:11:07.417Z,100.00
2023-04-26T01:13:52.888Z,100.00
2023-04-26T01:16:37.343Z,100.00
2023-04-26T01:19:23.571Z,100.00
2023-04-26T01:22:07.842Z,100.00
2023-04-26T01:24:56.528Z,100.00
2023-04-26T01:27:41.929Z,100.00
2023-04-26T01:30:25.926Z,100.00
2023-04-26T01:33:09.984Z,100.00
2023-04-26T01:35:54.035Z,100.00
2023-04-26T01:38:38.150Z,100.00
2023-04-26T01:41:24.621Z,100.00
2023-04-26T01:44:09.500Z,100.00
2023-04-26T01:46:53.258Z,100.00
2023-04-26T01:49:37.248Z,100.00
2023-04-26T01:52:21.540Z,100.00
2023-04-26T01:55:05.988Z,100.00
2023-04-26T01:57:51.208Z,100.00
2023-04-26T02:00:35.309Z,100.00
2023-04-26T02:03:19.326Z,100.00
2023-04-26T02:06:03.344Z,100.00
2023-04-26T02:08:47.344Z,100.00
2023-04-26T02:11:31.169Z,100.00
2023-04-26T02:14:16.882Z,100.00
2023-04-26T02:17:01.362Z,100.00
2023-04-26T02:19:45.653Z,100.00
2023-04-26T02:22:29.896Z,100.00
2023-04-26T02:25:13.814Z,100.00
2023-04-26T02:27:57.671Z,100.00
2023-04-26T02:30:43.408Z,100.00
2023-04-26T02:33:28.077Z,100.00
2023-04-26T02:36:12.063Z,100.00
2023-04-26T02:38:55.915Z,100.00
2023-04-26T02:41:40.104Z,100.00
2023-04-26T02:44:24.048Z,100.00
2023-04-26T02:47:09.671Z,100.00
2023-04-26T02:49:53.995Z,100.00
2023-04-26T02:52:38.343Z,100.00
2023-04-26T02:55:22.426Z,100.00
2023-04-26T02:58:07.816Z,100.00
2023-04-26T03:00:51.682Z,100.00
2023-04-26T03:03:37.531Z,100.00
2023-04-26T03:06:21.579Z,100.00
2023-04-26T03:09:05.926Z,100.00
2023-04-26T03:11:50.433Z,100.00
2023-04-26T03:14:34.709Z,100.00
2023-04-26T03:17:19.204Z,100.00
2023-04-26T03:20:06.306Z,100.00
2023-04-26T03:22:51.578Z,100.00
2023-04-26T03:25:35.987Z,100.00
2023-04-26T03:28:20.083Z,100.00
2023-04-26T03:31:04.146Z,100.00
2023-04-26T03:33:48.829Z,99.15
2023-04-26T03:36:34.012Z,99.03
2023-04-26T03:39:19.072Z,97.18
2023-04-26T03:42:04.148Z,96.73
2023-04-26T03:44:48.269Z,96.73
2023-04-26T03:47:33.030Z,95.75
2023-04-26T03:50:17.098Z,95.60
2023-04-26T03:53:03.925Z,96.94
2023-04-26T03:55:47.914Z,96.21
2023-04-26T03:58:32.113Z,95.20
2023-04-26T04:01:15.950Z,95.56
2023-04-26T04:04:00.786Z,96.33
2023-04-26T04:06:46.327Z,95.76
2023-04-26T04:09:31.629Z,96.12
2023-04-26T04:12:15.415Z,95.08
2023-04-26T04:15:00.861Z,95.28
2023-04-26T04:17:51.015Z,92.90
2023-04-26T04:20:35.105Z,93.94
2023-04-26T04:23:19.278Z,94.04
2023-04-26T04:26:04.610Z,96.56
2023-04-26T04:28:49.092Z,95.89
2023-04-26T04:31:34.010Z,95.63
2023-04-26T04:34:18.067Z,95.17
2023-04-26T04:37:04.343Z,93.56
2023-04-26T04:39:48.419Z,94.48
2023-04-26T04:42:35.045Z,90.50
2023-04-26T04:45:22.182Z,90.16
2023-04-26T04:48:09.198Z,89.64
2023-04-26T04:50:53.652Z,87.44
2023-04-26T04:53:38.171Z,87.75
2023-04-26T04:56:22.693Z,87.78
2023-04-26T04:59:08.718Z,86.99
2023-04-26T05:01:53.653Z,86.98
2023-04-26T05:04:38.482Z,84.38
2023-04-26T05:07:24.436Z,83.81
2023-04-26T05:10:11.356Z,83.05
2023-04-26T05:12:55.513Z,84.29
2023-04-26T05:15:41.399Z,83.57
2023-04-26T05:18:25.345Z,80.97
2023-04-26T05:21:09.221Z,80.80
2023-04-26T05:23:53.375Z,84.86
2023-04-26T05:26:37.712Z,86.95
2023-04-26T05:29:40.092Z,85.25
2023-04-26T05:32:42.870Z,84.37
2023-04-26T05:35:54.259Z,82.84
2023-04-26T05:38:39.201Z,82.41
2023-04-26T05:41:23.173Z,82.33
2023-04-26T05:44:07.312Z,81.75
2023-04-26T05:46:51.866Z,83.47
2023-04-26T05:49:37.251Z,84.11
2023-04-26T05:52:21.541Z,84.36
2023-04-26T05:55:07.826Z,83.27
2023-04-26T05:57:53.143Z,83.63
2023-04-26T06:00:38.608Z,84.43
2023-04-26T06:03:24.980Z,85.77
2023-04-26T06:06:11.283Z,86.79
2023-04-26T06:08:57.429Z,89.07
2023-04-26T06:11:41.235Z,89.46
2023-04-26T06:14:30.400Z,89.20
2023-04-26T06:17:20.129Z,92.28
2023-04-26T06:20:05.186Z,91.02
2023-04-26T06:23:07.305Z,91.64
2023-04-26T06:25:51.477Z,92.12
2023-04-26T06:28:36.003Z,90.41
2023-04-26T06:31:21.892Z,92.00
2023-04-26T06:34:07.115Z,89.01
2023-04-26T06:36:52.695Z,87.63
2023-04-26T06:39:40.278Z,85.84
2023-04-26T06:42:24.808Z,85.88
2023-04-26T06:45:47.203Z,83.83
2023-04-26T06:48:31.178Z,84.45
2023-04-26T06:51:14.947Z,84.59
2023-04-26T06:53:59.200Z,83.78
2023-04-26T06:56:44.450Z,83.34
2023-04-26T06:59:28.487Z,82.86
2023-04-26T07:02:13.367Z,81.97
2023-04-26T07:04:59.657Z,81.95
2023-04-26T07:07:43.899Z,81.20
2023-04-26T07:10:27.964Z,80.93
2023-04-26T07:13:13.431Z,79.82
2023-04-26T07:15:57.805Z,79.85
2023-04-26T07:18:42.180Z,80.04
2023-04-26T07:21:27.035Z,82.01
2023-04-26T07:24:11.163Z,81.06
2023-04-26T07:26:55.472Z,82.45
2023-04-26T07:29:41.109Z,84.05
2023-04-26T07:32:25.162Z,83.49
2023-04-26T07:35:16.288Z,83.67
2023-04-26T07:38:00.661Z,81.63
2023-04-26T07:40:45.164Z,82.58
2023-04-26T07:43:29.441Z,80.25
2023-04-26T07:46:15.098Z,82.31
2023-04-26T07:48:59.339Z,82.66
2023-04-26T07:51:45.880Z,81.10
2023-04-26T07:54:30.101Z,80.99
2023-04-26T07:57:14.133Z,81.11
2023-04-26T07:59:58.161Z,80.06
2023-04-26T08:02:45.502Z,82.01
2023-04-26T08:05:30.208Z,80.26
2023-04-26T08:08:15.426Z,79.61
2023-04-26T08:11:00.126Z,79.07
2023-04-26T08:13:45.341Z,78.10
2023-04-26T08:16:29.511Z,76.29
2023-04-26T08:19:15.143Z,75.12
2023-04-26T08:21:59.191Z,72.79
2023-04-26T08:24:43.218Z,73.82
2023-04-26T08:27:28.448Z,74.04
2023-04-26T08:30:13.345Z,74.05
2023-04-26T08:32:57.562Z,76.52
2023-04-26T08:35:43.129Z,74.93
2023-04-26T08:38:27.163Z,76.81
2023-04-26T08:41:15.177Z,73.87
2023-04-26T08:44:01.728Z,73.67
2023-04-26T08:46:52.446Z,72.86
2023-04-26T08:49:42.526Z,73.77
2023-04-26T08:52:30.430Z,71.49
2023-04-26T08:55:17.694Z,73.10
2023-04-26T08:58:03.934Z,71.76
2023-04-26T09:00:48.701Z,73.77
2023-04-26T09:03:33.083Z,71.51
2023-04-26T09:06:18.116Z,72.48
2023-04-26T09:09:05.525Z,69.81
2023-04-26T09:11:57.990Z,72.85
2023-04-26T09:14:42.184Z,71.76
2023-04-26T09:17:30.968Z,72.22
2023-04-26T09:20:23.878Z,71.51
2023-04-26T09:23:09.318Z,72.90
2023-04-26T09:25:55.041Z,71.98
2023-04-26T09:28:38.994Z,73.31
2023-04-26T09:31:39.533Z,71.24
2023-04-26T09:34:23.667Z,71.81
2023-04-26T09:37:14.010Z,70.16
2023-04-26T09:39:58.115Z,70.59
2023-04-26T09:42:43.748Z,73.25
2023-04-26T09:45:28.789Z,71.83
2023-04-26T09:48:18.052Z,70.51
2023-04-26T09:51:11.586Z,68.72
2023-04-26T09:53:56.765Z,68.58
2023-04-26T09:56:40.990Z,66.22
2023-04-26T09:59:27.058Z,66.53
2023-04-26T10:02:18.549Z,65.40
2023-04-26T10:05:03.209Z,70.49
2023-04-26T10:07:48.733Z,65.86
2023-04-26T10:10:33.263Z,66.67
2023-04-26T10:13:18.377Z,66.29
2023-04-26T10:16:05.032Z,68.10
2023-04-26T10:18:49.669Z,68.12
2023-04-26T10:21:38.496Z,65.15
2023-04-26T10:24:25.215Z,64.73
2023-04-26T10:27:09.261Z,65.29
2023-04-26T10:30:10.327Z,66.01
2023-04-26T10:33:17.860Z,64.51
2023-04-26T10:36:08.822Z,63.98
2023-04-26T10:39:20.516Z,62.16
2023-04-26T10:42:26.018Z,65.77
2023-04-26T10:45:28.619Z,64.16
2023-04-26T10:48:17.712Z,64.40
2023-04-26T10:51:13.725Z,66.14
2023-04-26T10:54:02.330Z,67.62
2023-04-26T10:56:53.453Z,69.19
2023-04-26T10:59:51.247Z,69.04
2023-04-26T11:02:51.091Z,67.80
2023-04-26T11:05:43.446Z,65.40
2023-04-26T11:08:30.699Z,64.90
2023-04-26T11:11:15.098Z,66.96
2023-04-26T11:14:03.595Z,62.62
2023-04-26T11:16:47.696Z,63.28
2023-04-26T11:19:31.785Z,63.73
2023-04-26T11:22:15.842Z,65.65
2023-04-26T11:25:03.339Z,62.62
2023-04-26T11:27:47.533Z,59.75
2023-04-26T11:30:32.933Z,55.08
2023-04-26T11:33:23.145Z,58.55
2023-04-26T11:36:07.912Z,56.56
2023-04-26T11:38:52.344Z,57.71
2023-04-26T11:41:38.005Z,55.23
2023-04-26T11:44:22.500Z,56.16
2023-04-26T11:47:08.253Z,56.64
2023-04-26T11:49:52.585Z,54.33
2023-04-26T11:52:36.857Z,50.94
2023-04-26T11:55:25.764Z,50.45
2023-04-26T11:58:15.943Z,47.92
2023-04-26T12:01:01.983Z,50.21
2023-04-26T12:03:52.214Z,48.98
2023-04-26T12:06:44.432Z,45.90
2023-04-26T12:09:29.919Z,49.69
2023-04-26T12:12:13.856Z,46.61
2023-04-26T12:14:59.496Z,50.24
2023-04-26T12:17:53.754Z,46.06
2023-04-26T12:20:40.265Z,46.30
2023-04-26T12:23:24.855Z,45.92
2023-04-26T12:26:11.301Z,44.56
2023-04-26T12:28:55.402Z,46.04
2023-04-26T12:31:41.780Z,45.16
2023-04-26T12:34:26.319Z,50.07
2023-04-26T12:37:10.858Z,48.86
2023-04-26T12:39:54.953Z,45.07
2023-04-26T12:42:39.340Z,41.62
2023-04-26T12:45:24.232Z,41.38
2023-04-26T12:48:09.906Z,40.10
2023-04-26T12:50:53.927Z,42.73
2023-04-26T12:53:37.953Z,49.76
2023-04-26T12:56:22.122Z,53.59
2023-04-26T12:59:06.680Z,54.77
2023-04-26T13:01:50.839Z,53.84
2023-04-26T13:04:40.207Z,55.87
2023-04-26T13:07:25.452Z,53.91
2023-04-26T13:10:13.096Z,55.81
2023-04-26T13:12:58.381Z,55.14
2023-04-26T13:15:42.653Z,56.76
2023-04-26T13:18:26.969Z,55.53
2023-04-26T13:21:12.761Z,56.62
2023-04-26T13:23:56.887Z,56.77
2023-04-26T13:26:41.082Z,54.90
2023-04-26T13:29:25.959Z,54.10
2023-04-26T13:32:10.304Z,55.22
2023-04-26T13:34:55.225Z,54.19
2023-04-26T13:37:41.794Z,57.68
2023-04-26T13:40:25.854Z,61.45
2023-04-26T13:43:09.994Z,58.66
2023-04-26T13:45:54.007Z,58.00
2023-04-26T13:48:38.228Z,60.20
2023-04-26T13:51:22.420Z,59.28
2023-04-26T13:54:08.203Z,59.86
2023-04-26T13:56:52.329Z,58.80
2023-04-26T13:59:37.310Z,64.31
2023-04-26T14:02:21.692Z,62.45
2023-04-26T14:05:07.176Z,61.61
2023-04-26T14:07:53.552Z,59.65
2023-04-26T14:10:40.348Z,60.10
2023-04-26T14:13:24.497Z,59.46
2023-04-26T14:16:10.816Z,59.99
2023-04-26T14:18:55.125Z,61.38
2023-04-26T14:21:39.101Z,60.78
2023-04-26T14:24:23.021Z,61.06
2023-04-26T14:27:08.412Z,61.78
2023-04-26T14:29:52.547Z,60.32
2023-04-26T14:32:36.767Z,61.35
2023-04-26T14:35:21.003Z,63.25
2023-04-26T14:38:05.095Z,66.99
2023-04-26T14:40:49.186Z,65.17
2023-04-26T14:43:35.074Z,65.57
2023-04-26T14:46:19.268Z,65.13
2023-04-26T14:49:03.364Z,65.30
2023-04-26T14:51:47.486Z,65.98
2023-04-26T14:54:31.619Z,66.40
2023-04-26T14:57:16.005Z,67.81
2023-04-26T15:00:07.138Z,68.75
2023-04-26T15:02:52.365Z,68.93
2023-04-26T15:05:36.643Z,68.95
2023-04-26T15:08:21.582Z,67.88
2023-04-26T15:11:06.144Z,70.11
2023-04-26T15:13:50.534Z,71.03
2023-04-26T15:16:36.459Z,69.72
2023-04-26T15:19:21.223Z,67.72
2023-04-26T15:22:06.125Z,66.19
2023-04-26T15:24:51.269Z,66.24
2023-04-26T15:27:40.030Z,66.80
2023-04-26T15:30:24.310Z,66.47
2023-04-26T15:33:13.080Z,65.56
2023-04-26T15:35:57.459Z,65.48
2023-04-26T15:38:45.281Z,67.37
2023-04-26T15:41:30.146Z,68.70
2023-04-26T15:44:14.787Z,67.83
2023-04-26T15:46:59.325Z,67.11
2023-04-26T15:49:45.044Z,67.17
2023-04-26T15:52:29.089Z,70.76
2023-04-26T15:55:13.481Z,70.77
2023-04-26T15:57:57.710Z,69.73
2023-04-26T16:00:42.132Z,68.48
2023-04-26T16:03:26.730Z,68.99
2023-04-26T16:06:12.650Z,70.12
2023-04-26T16:08:57.158Z,71.44
2023-04-26T16:11:41.265Z,69.91
2023-04-26T16:14:25.378Z,68.70
2023-04-26T16:17:09.670Z,69.47
2023-04-26T16:19:53.693Z,68.16
2023-04-26T16:22:39.355Z,70.26
2023-04-26T16:25:23.690Z,69.99
2023-04-26T16:28:10.062Z,71.57
2023-04-26T16:30:56.068Z,72.12
2023-04-26T16:33:40.129Z,69.90
2023-04-26T16:36:25.212Z,71.52
2023-04-26T16:39:14.153Z,71.21
2023-04-26T16:41:59.759Z,71.97
2023-04-26T16:44:43.934Z,71.39
2023-04-26T16:47:28.075Z,70.49
2023-04-26T16:50:12.704Z,70.45
2023-04-26T16:52:56.886Z,70.93
2023-04-26T16:55:42.303Z,70.94
2023-04-26T16:58:27.104Z,70.97
2023-04-26T17:01:11.116Z,70.39
2023-04-26T17:03:55.482Z,70.07
2023-04-26T17:06:39.765Z,71.06
2023-04-26T17:09:23.807Z,71.14
2023-04-26T17:12:09.680Z,71.71
2023-04-26T17:14:53.609Z,71.38
2023-04-26T17:17:37.672Z,70.95
2023-04-26T17:20:22.154Z,71.20
2023-04-26T17:23:08.140Z,72.24
2023-04-26T17:25:54.374Z,72.00
2023-04-26T17:28:41.728Z,70.96
2023-04-26T17:31:25.857Z,71.28
2023-04-26T17:34:10.165Z,71.68
2023-04-26T17:36:54.225Z,72.11
2023-04-26T17:39:38.479Z,70.76
2023-04-26T17:42:22.562Z,71.33
2023-04-26T17:45:10.356Z,70.95
2023-04-26T17:47:56.251Z,70.80
2023-04-26T17:50:40.331Z,71.05
2023-04-26T17:53:24.586Z,71.61
2023-04-26T17:56:10.090Z,71.52
2023-04-26T17:58:54.208Z,70.95
2023-04-26T18:01:39.749Z,71.91
2023-04-26T18:04:24.293Z,72.19
2023-04-26T18:07:08.406Z,70.88
2023-04-26T18:09:52.657Z,71.67
2023-04-26T18:12:36.850Z,71.50
2023-04-26T18:15:20.943Z,71.22
2023-04-26T18:18:08.289Z,72.23
2023-04-26T18:20:52.465Z,71.92
2023-04-26T18:23:36.439Z,72.38
2023-04-26T18:26:20.616Z,71.82
2023-04-26T18:29:04.656Z,72.09
2023-04-26T18:31:49.742Z,72.37
2023-04-26T18:34:35.394Z,73.08
2023-04-26T18:37:20.393Z,71.64
2023-04-26T18:40:05.199Z,71.90
2023-04-26T18:42:49.443Z,72.26
2023-04-26T18:45:34.331Z,71.42
2023-04-26T18:48:18.428Z,71.39
2023-04-26T18:51:04.049Z,72.60
2023-04-26T18:53:48.297Z,72.74
2023-04-26T18:56:32.931Z,73.76
2023-04-26T18:59:16.938Z,74.91
2023-04-26T19:02:01.786Z,74.35
2023-04-26T19:04:48.175Z,75.14
2023-04-26T19:07:35.585Z,76.09
2023-04-26T19:10:19.758Z,75.38
2023-04-26T19:13:05.034Z,75.66
2023-04-26T19:15:49.421Z,74.44
2023-04-26T19:18:33.717Z,74.45
2023-04-26T19:21:17.944Z,74.11
2023-04-26T19:24:04.618Z,76.01
2023-04-26T19:26:48.844Z,74.90
2023-04-26T19:29:32.867Z,75.70
2023-04-26T19:32:19.259Z,76.43
2023-04-26T19:35:05.119Z,74.99
2023-04-26T19:37:49.455Z,73.83
2023-04-26T19:40:35.109Z,72.59
2023-04-26T19:43:19.393Z,73.41
2023-04-26T19:46:03.661Z,72.48
2023-04-26T19:48:47.948Z,72.40
2023-04-26T19:51:32.322Z,73.92
2023-04-26T19:54:21.160Z,72.40
2023-04-26T19:57:06.900Z,72.78
2023-04-26T19:59:51.255Z,74.04
2023-04-26T20:02:35.695Z,73.03
2023-04-26T20:05:20.374Z,73.44
2023-04-26T20:08:04.565Z,71.46
2023-04-26T20:10:48.797Z,74.33
2023-04-26T20:13:34.492Z,77.54
2023-04-26T20:16:19.178Z,77.90
2023-04-26T20:19:03.649Z,77.08
2023-04-26T20:21:47.880Z,75.33
2023-04-26T20:24:32.054Z,74.19
2023-04-26T20:27:16.536Z,74.60
2023-04-26T20:30:02.411Z,76.39
2023-04-26T20:32:48.338Z,79.92
2023-04-26T20:35:32.545Z,82.06
2023-04-26T20:38:16.836Z,82.56
2023-04-26T20:41:01.133Z,83.29
2023-04-26T20:43:45.229Z,83.53
2023-04-26T20:46:31.020Z,82.51
2023-04-26T20:49:15.964Z,84.16
2023-04-26T20:52:00.103Z,84.07
2023-04-26T20:54:44.312Z,84.26
2023-04-26T20:57:28.467Z,85.28
2023-04-26T21:00:13.374Z,85.36
2023-04-26T21:02:59.078Z,85.70
2023-04-26T21:05:43.210Z,85.84
2023-04-26T21:08:27.278Z,84.57
2023-04-26T21:11:11.265Z,84.06
2023-04-26T21:13:55.309Z,83.76
2023-04-26T21:16:39.426Z,84.69
2023-04-26T21:19:24.917Z,84.49
2023-04-26T21:22:09.738Z,87.13
2023-04-26T21:24:53.852Z,88.59
2023-04-26T21:27:37.940Z,92.32
2023-04-26T21:30:22.088Z,95.06
2023-04-26T21:33:07.515Z,100.00
2023-04-26T21:35:52.938Z,100.00
2023-04-26T21:38:37.034Z,100.00
2023-04-26T21:41:21.090Z,100.00
2023-04-26T21:44:05.116Z,100.00
2023-04-26T21:46:49.179Z,100.00
2023-04-26T21:49:33.248Z,100.00
2023-04-26T21:52:18.980Z,100.00
2023-04-26T21:55:03.848Z,100.00
2023-04-26T21:57:47.916Z,100.00
2023-04-26T22:00:31.914Z,100.00
2023-04-26T22:03:16.633Z,100.00
2023-04-26T22:06:00.659Z,100.00
2023-04-26T22:08:46.240Z,100.00
2023-04-26T22:11:30.241Z,100.00
2023-04-26T22:14:14.251Z,100.00
2023-04-26T22:16:58.267Z,100.00
2023-04-26T22:19:42.295Z,100.00
2023-04-26T22:22:26.387Z,100.00
2023-04-26T22:25:12.089Z,100.00
2023-04-26T22:27:56.144Z,99.19
2023-04-26T22:30:40.093Z,100.00
2023-04-26T22:33:24.202Z,100.00
2023-04-26T23:05:55.562Z,96.37
2023-04-26T23:08:39.538Z,95.67
2023-04-26T23:11:23.546Z,95.64
2023-04-26T23:14:07.726Z,94.12
2023-04-26T23:16:52.277Z,94.71
2023-04-26T23:19:36.731Z,93.47
2023-04-26T23:22:22.429Z,92.14
2023-04-26T23:25:07.350Z,90.58
2023-04-26T23:27:51.310Z,89.03
2023-04-26T23:30:36.052Z,88.28
2023-04-26T23:33:20.145Z,88.05
2023-04-26T23:36:04.324Z,88.22
2023-04-26T23:38:49.688Z,87.60
2023-04-26T23:41:33.840Z,88.46
2023-04-26T23:44:17.922Z,88.39
2023-04-26T23:47:02.104Z,89.36
2023-04-26T23:49:46.317Z,89.43
2023-04-26T23:52:30.239Z,89.61
2023-04-26T23:55:15.579Z,88.15
2023-04-26T23:57:59.587Z,87.28
